sensor_id;sensor_type;location;lat;lon;timestamp;P1;durP1;ratioP1;P2;durP2;ratioP2
24897;SDS011;12957;49.434;8.684;2024-01-06T00:01:35;3.83;;;1.70;;
24897;SDS011;12957;49.434;8.684;2024-01-06T00:04:01;6.87;;;1.73;;
24897;SDS011;12957;49.434;8.684;2024-01-06T00:06:26;3.07;;;1.90;;
24897;SDS011;12957;49.434;8.684;2024-01-06T00:08:52;2.57;;;1.70;;
24897;SDS011;12957;49.434;8.684;2024-01-06T00:11:19;4.30;;;1.60;;
24897;SDS011;12957;49.434;8.684;2024-01-06T00:13:45;5.23;;;1.83;;
24897;SDS011;12957;49.434;8.684;2024-01-06T00:16:10;7.70;;;2.07;;
24897;SDS011;12957;49.434;8.684;2024-01-06T00:18:36;2.37;;;1.70;;
24897;SDS011;12957;49.434;8.684;2024-01-06T00:21:02;4.67;;;1.60;;
24897;SDS011;12957;49.434;8.684;2024-01-06T00:23:27;4.13;;;1.80;;
24897;SDS011;12957;49.434;8.684;2024-01-06T00:25:52;5.60;;;1.70;;
24897;SDS011;12957;49.434;8.684;2024-01-06T00:28:18;5.53;;;1.77;;
24897;SDS011;12957;49.434;8.684;2024-01-06T00:30:43;4.77;;;1.80;;
24897;SDS011;12957;49.434;8.684;2024-01-06T00:33:09;5.43;;;1.53;;
24897;SDS011;12957;49.434;8.684;2024-01-06T00:35:34;5.70;;;2.00;;
24897;SDS011;12957;49.434;8.684;2024-01-06T00:38:00;6.47;;;1.80;;
24897;SDS011;12957;49.434;8.684;2024-01-06T00:40:25;7.13;;;2.03;;
24897;SDS011;12957;49.434;8.684;2024-01-06T00:42:51;2.00;;;1.80;;
24897;SDS011;12957;49.434;8.684;2024-01-06T00:45:16;3.80;;;1.80;;
24897;SDS011;12957;49.434;8.684;2024-01-06T00:47:42;5.73;;;1.80;;
24897;SDS011;12957;49.434;8.684;2024-01-06T00:50:08;5.57;;;1.97;;
24897;SDS011;12957;49.434;8.684;2024-01-06T00:52:33;3.17;;;1.77;;
24897;SDS011;12957;49.434;8.684;2024-01-06T00:54:59;4.07;;;1.60;;
24897;SDS011;12957;49.434;8.684;2024-01-06T00:57:24;2.47;;;1.67;;
24897;SDS011;12957;49.434;8.684;2024-01-06T00:59:50;2.97;;;1.77;;
24897;SDS011;12957;49.434;8.684;2024-01-06T01:02:18;4.80;;;2.00;;
24897;SDS011;12957;49.434;8.684;2024-01-06T01:04:43;6.03;;;1.80;;
24897;SDS011;12957;49.434;8.684;2024-01-06T01:07:09;2.80;;;1.73;;
24897;SDS011;12957;49.434;8.684;2024-01-06T01:09:34;5.07;;;2.00;;
24897;SDS011;12957;49.434;8.684;2024-01-06T01:12:00;6.37;;;1.73;;
24897;SDS011;12957;49.434;8.684;2024-01-06T01:14:25;6.87;;;1.97;;
24897;SDS011;12957;49.434;8.684;2024-01-06T01:16:51;5.23;;;2.10;;
24897;SDS011;12957;49.434;8.684;2024-01-06T01:19:16;5.13;;;2.20;;
24897;SDS011;12957;49.434;8.684;2024-01-06T01:21:42;5.17;;;2.00;;
24897;SDS011;12957;49.434;8.684;2024-01-06T01:24:07;4.07;;;2.00;;
24897;SDS011;12957;49.434;8.684;2024-01-06T01:26:33;6.23;;;2.10;;
24897;SDS011;12957;49.434;8.684;2024-01-06T01:28:58;4.73;;;1.93;;
24897;SDS011;12957;49.434;8.684;2024-01-06T01:31:24;3.83;;;2.40;;
24897;SDS011;12957;49.434;8.684;2024-01-06T01:33:49;7.37;;;2.10;;
24897;SDS011;12957;49.434;8.684;2024-01-06T01:36:15;11.43;;;2.80;;
24897;SDS011;12957;49.434;8.684;2024-01-06T01:38:40;6.37;;;2.50;;
24897;SDS011;12957;49.434;8.684;2024-01-06T01:41:06;6.73;;;2.60;;
24897;SDS011;12957;49.434;8.684;2024-01-06T01:43:31;7.70;;;2.53;;
24897;SDS011;12957;49.434;8.684;2024-01-06T01:45:57;5.77;;;2.40;;
24897;SDS011;12957;49.434;8.684;2024-01-06T01:48:23;8.30;;;2.97;;
24897;SDS011;12957;49.434;8.684;2024-01-06T01:50:49;5.57;;;2.37;;
24897;SDS011;12957;49.434;8.684;2024-01-06T01:53:14;6.03;;;2.37;;
24897;SDS011;12957;49.434;8.684;2024-01-06T01:55:40;5.57;;;2.40;;
24897;SDS011;12957;49.434;8.684;2024-01-06T01:58:06;5.70;;;2.30;;
24897;SDS011;12957;49.434;8.684;2024-01-06T02:00:31;6.53;;;2.37;;
24897;SDS011;12957;49.434;8.684;2024-01-06T02:02:58;4.00;;;2.67;;
24897;SDS011;12957;49.434;8.684;2024-01-06T02:05:24;7.00;;;2.37;;
24897;SDS011;12957;49.434;8.684;2024-01-06T02:07:49;6.27;;;2.40;;
24897;SDS011;12957;49.434;8.684;2024-01-06T02:10:16;7.80;;;2.27;;
24897;SDS011;12957;49.434;8.684;2024-01-06T02:12:42;3.53;;;2.13;;
24897;SDS011;12957;49.434;8.684;2024-01-06T02:15:08;6.43;;;2.37;;
24897;SDS011;12957;49.434;8.684;2024-01-06T02:17:33;6.90;;;2.63;;
24897;SDS011;12957;49.434;8.684;2024-01-06T02:19:59;4.20;;;2.40;;
24897;SDS011;12957;49.434;8.684;2024-01-06T02:22:24;5.80;;;3.00;;
24897;SDS011;12957;49.434;8.684;2024-01-06T02:24:50;7.80;;;2.90;;
24897;SDS011;12957;49.434;8.684;2024-01-06T02:27:15;6.13;;;2.80;;
24897;SDS011;12957;49.434;8.684;2024-01-06T02:29:41;4.27;;;2.80;;
24897;SDS011;12957;49.434;8.684;2024-01-06T02:32:06;5.83;;;2.93;;
24897;SDS011;12957;49.434;8.684;2024-01-06T02:34:32;6.17;;;2.57;;
24897;SDS011;12957;49.434;8.684;2024-01-06T02:36:58;7.40;;;2.73;;
24897;SDS011;12957;49.434;8.684;2024-01-06T02:39:23;7.27;;;2.63;;
24897;SDS011;12957;49.434;8.684;2024-01-06T02:41:49;10.00;;;2.80;;
24897;SDS011;12957;49.434;8.684;2024-01-06T02:44:14;6.80;;;3.13;;
24897;SDS011;12957;49.434;8.684;2024-01-06T02:46:40;7.13;;;2.83;;
24897;SDS011;12957;49.434;8.684;2024-01-06T02:49:06;5.27;;;3.30;;
24897;SDS011;12957;49.434;8.684;2024-01-06T02:51:32;5.33;;;2.67;;
24897;SDS011;12957;49.434;8.684;2024-01-06T02:53:58;5.77;;;2.87;;
24897;SDS011;12957;49.434;8.684;2024-01-06T02:56:23;7.10;;;3.10;;
24897;SDS011;12957;49.434;8.684;2024-01-06T02:58:49;5.50;;;3.00;;
24897;SDS011;12957;49.434;8.684;2024-01-06T03:01:14;4.20;;;2.77;;
24897;SDS011;12957;49.434;8.684;2024-01-06T03:03:40;9.13;;;3.40;;
24897;SDS011;12957;49.434;8.684;2024-01-06T03:06:05;9.67;;;3.30;;
24897;SDS011;12957;49.434;8.684;2024-01-06T03:08:31;5.43;;;2.80;;
24897;SDS011;12957;49.434;8.684;2024-01-06T03:10:56;6.27;;;3.60;;
24897;SDS011;12957;49.434;8.684;2024-01-06T03:13:22;6.87;;;2.90;;
24897;SDS011;12957;49.434;8.684;2024-01-06T03:15:47;4.67;;;2.87;;
24897;SDS011;12957;49.434;8.684;2024-01-06T03:18:13;6.10;;;2.93;;
24897;SDS011;12957;49.434;8.684;2024-01-06T03:20:38;7.77;;;3.10;;
24897;SDS011;12957;49.434;8.684;2024-01-06T03:23:04;6.27;;;3.27;;
24897;SDS011;12957;49.434;8.684;2024-01-06T03:25:29;5.03;;;2.50;;
24897;SDS011;12957;49.434;8.684;2024-01-06T03:27:55;10.37;;;3.40;;
24897;SDS011;12957;49.434;8.684;2024-01-06T03:30:20;6.23;;;2.77;;
24897;SDS011;12957;49.434;8.684;2024-01-06T03:32:46;5.50;;;2.83;;
24897;SDS011;12957;49.434;8.684;2024-01-06T03:35:11;9.03;;;3.00;;
24897;SDS011;12957;49.434;8.684;2024-01-06T03:37:37;6.20;;;2.77;;
24897;SDS011;12957;49.434;8.684;2024-01-06T03:40:02;7.15;;;2.80;;
24897;SDS011;12957;49.434;8.684;2024-01-06T03:42:28;6.13;;;2.80;;
24897;SDS011;12957;49.434;8.684;2024-01-06T03:44:53;7.23;;;2.90;;
24897;SDS011;12957;49.434;8.684;2024-01-06T03:47:19;5.70;;;2.30;;
24897;SDS011;12957;49.434;8.684;2024-01-06T03:49:44;6.97;;;2.97;;
24897;SDS011;12957;49.434;8.684;2024-01-06T03:52:10;6.28;;;2.78;;
24897;SDS011;12957;49.434;8.684;2024-01-06T03:54:35;6.72;;;2.60;;
24897;SDS011;12957;49.434;8.684;2024-01-06T03:57:01;4.40;;;2.70;;
24897;SDS011;12957;49.434;8.684;2024-01-06T03:59:26;6.13;;;2.60;;
24897;SDS011;12957;49.434;8.684;2024-01-06T04:01:52;3.80;;;2.30;;
24897;SDS011;12957;49.434;8.684;2024-01-06T04:04:17;6.63;;;2.80;;
24897;SDS011;12957;49.434;8.684;2024-01-06T04:06:43;6.77;;;2.83;;
24897;SDS011;12957;49.434;8.684;2024-01-06T04:09:09;6.83;;;2.57;;
24897;SDS011;12957;49.434;8.684;2024-01-06T04:11:34;12.53;;;3.20;;
24897;SDS011;12957;49.434;8.684;2024-01-06T04:14:00;4.27;;;2.40;;
24897;SDS011;12957;49.434;8.684;2024-01-06T04:16:26;8.87;;;2.90;;
24897;SDS011;12957;49.434;8.684;2024-01-06T04:18:52;7.17;;;2.73;;
24897;SDS011;12957;49.434;8.684;2024-01-06T04:21:18;4.73;;;2.50;;
24897;SDS011;12957;49.434;8.684;2024-01-06T04:23:43;3.60;;;2.20;;
24897;SDS011;12957;49.434;8.684;2024-01-06T04:26:09;6.53;;;2.83;;
24897;SDS011;12957;49.434;8.684;2024-01-06T04:28:34;5.10;;;2.67;;
24897;SDS011;12957;49.434;8.684;2024-01-06T04:31:00;6.43;;;2.60;;
24897;SDS011;12957;49.434;8.684;2024-01-06T04:33:25;4.73;;;2.50;;
24897;SDS011;12957;49.434;8.684;2024-01-06T04:35:51;5.00;;;2.40;;
24897;SDS011;12957;49.434;8.684;2024-01-06T04:38:16;4.63;;;2.70;;
24897;SDS011;12957;49.434;8.684;2024-01-06T04:40:42;3.93;;;2.53;;
24897;SDS011;12957;49.434;8.684;2024-01-06T04:43:08;6.20;;;2.73;;
24897;SDS011;12957;49.434;8.684;2024-01-06T04:45:33;6.47;;;2.77;;
24897;SDS011;12957;49.434;8.684;2024-01-06T04:47:59;5.97;;;2.73;;
24897;SDS011;12957;49.434;8.684;2024-01-06T04:50:25;4.87;;;2.77;;
24897;SDS011;12957;49.434;8.684;2024-01-06T04:52:50;6.37;;;2.70;;
24897;SDS011;12957;49.434;8.684;2024-01-06T04:55:16;6.67;;;2.70;;
24897;SDS011;12957;49.434;8.684;2024-01-06T04:57:41;7.03;;;2.70;;
24897;SDS011;12957;49.434;8.684;2024-01-06T05:00:07;5.17;;;2.90;;
24897;SDS011;12957;49.434;8.684;2024-01-06T05:02:33;3.60;;;2.47;;
24897;SDS011;12957;49.434;8.684;2024-01-06T05:04:59;5.60;;;2.67;;
24897;SDS011;12957;49.434;8.684;2024-01-06T05:07:24;6.17;;;2.40;;
24897;SDS011;12957;49.434;8.684;2024-01-06T05:09:49;6.43;;;2.80;;
24897;SDS011;12957;49.434;8.684;2024-01-06T05:12:15;7.50;;;2.75;;
24897;SDS011;12957;49.434;8.684;2024-01-06T05:14:40;7.03;;;2.80;;
24897;SDS011;12957;49.434;8.684;2024-01-06T05:17:06;9.67;;;2.70;;
24897;SDS011;12957;49.434;8.684;2024-01-06T05:19:31;4.20;;;2.87;;
24897;SDS011;12957;49.434;8.684;2024-01-06T05:21:57;9.60;;;3.10;;
24897;SDS011;12957;49.434;8.684;2024-01-06T05:24:23;5.23;;;2.53;;
24897;SDS011;12957;49.434;8.684;2024-01-06T05:26:48;9.83;;;3.10;;
24897;SDS011;12957;49.434;8.684;2024-01-06T05:29:14;5.67;;;3.07;;
24897;SDS011;12957;49.434;8.684;2024-01-06T05:31:39;6.13;;;2.67;;
24897;SDS011;12957;49.434;8.684;2024-01-06T05:34:05;7.30;;;3.03;;
24897;SDS011;12957;49.434;8.684;2024-01-06T05:36:30;6.23;;;2.83;;
24897;SDS011;12957;49.434;8.684;2024-01-06T05:38:56;6.60;;;2.73;;
24897;SDS011;12957;49.434;8.684;2024-01-06T05:41:21;5.97;;;2.90;;
24897;SDS011;12957;49.434;8.684;2024-01-06T05:43:47;8.73;;;2.83;;
24897;SDS011;12957;49.434;8.684;2024-01-06T05:46:19;7.17;;;3.07;;
24897;SDS011;12957;49.434;8.684;2024-01-06T05:48:48;9.07;;;3.10;;
24897;SDS011;12957;49.434;8.684;2024-01-06T05:51:14;4.33;;;2.57;;
24897;SDS011;12957;49.434;8.684;2024-01-06T05:53:39;10.50;;;3.23;;
24897;SDS011;12957;49.434;8.684;2024-01-06T05:56:07;7.97;;;3.23;;
24897;SDS011;12957;49.434;8.684;2024-01-06T05:58:34;9.10;;;3.60;;
24897;SDS011;12957;49.434;8.684;2024-01-06T06:00:59;5.50;;;2.97;;
24897;SDS011;12957;49.434;8.684;2024-01-06T06:03:25;4.93;;;2.90;;
24897;SDS011;12957;49.434;8.684;2024-01-06T06:05:50;11.40;;;3.20;;
24897;SDS011;12957;49.434;8.684;2024-01-06T06:08:16;4.90;;;3.07;;
24897;SDS011;12957;49.434;8.684;2024-01-06T06:10:41;6.43;;;2.95;;
24897;SDS011;12957;49.434;8.684;2024-01-06T06:13:24;5.72;;;2.92;;
24897;SDS011;12957;49.434;8.684;2024-01-06T06:15:50;4.30;;;2.90;;
24897;SDS011;12957;49.434;8.684;2024-01-06T06:18:15;7.95;;;2.80;;
24897;SDS011;12957;49.434;8.684;2024-01-06T06:20:41;5.53;;;2.93;;
24897;SDS011;12957;49.434;8.684;2024-01-06T06:23:08;7.00;;;3.60;;
24897;SDS011;12957;49.434;8.684;2024-01-06T06:25:34;3.57;;;2.60;;
24897;SDS011;12957;49.434;8.684;2024-01-06T06:27:59;4.57;;;3.07;;
24897;SDS011;12957;49.434;8.684;2024-01-06T06:30:25;5.67;;;3.17;;
24897;SDS011;12957;49.434;8.684;2024-01-06T06:32:51;8.10;;;3.13;;
24897;SDS011;12957;49.434;8.684;2024-01-06T06:35:16;5.27;;;2.90;;
24897;SDS011;12957;49.434;8.684;2024-01-06T06:37:42;8.63;;;2.93;;
24897;SDS011;12957;49.434;8.684;2024-01-06T06:40:07;9.50;;;3.33;;
24897;SDS011;12957;49.434;8.684;2024-01-06T06:42:33;6.33;;;2.90;;
24897;SDS011;12957;49.434;8.684;2024-01-06T06:44:58;8.00;;;3.08;;
24897;SDS011;12957;49.434;8.684;2024-01-06T06:47:24;5.10;;;2.87;;
24897;SDS011;12957;49.434;8.684;2024-01-06T06:49:49;4.70;;;2.70;;
24897;SDS011;12957;49.434;8.684;2024-01-06T06:52:15;10.40;;;3.27;;
24897;SDS011;12957;49.434;8.684;2024-01-06T06:54:41;8.50;;;2.93;;
24897;SDS011;12957;49.434;8.684;2024-01-06T06:57:06;6.90;;;3.00;;
24897;SDS011;12957;49.434;8.684;2024-01-06T06:59:32;7.50;;;2.80;;
24897;SDS011;12957;49.434;8.684;2024-01-06T07:01:57;7.80;;;3.23;;
24897;SDS011;12957;49.434;8.684;2024-01-06T07:04:23;3.80;;;3.13;;
24897;SDS011;12957;49.434;8.684;2024-01-06T07:06:49;5.07;;;3.30;;
24897;SDS011;12957;49.434;8.684;2024-01-06T07:09:15;7.93;;;3.03;;
24897;SDS011;12957;49.434;8.684;2024-01-06T07:11:40;6.87;;;2.87;;
24897;SDS011;12957;49.434;8.684;2024-01-06T07:14:06;5.77;;;3.27;;
24897;SDS011;12957;49.434;8.684;2024-01-06T07:16:31;7.20;;;3.10;;
24897;SDS011;12957;49.434;8.684;2024-01-06T07:18:57;7.03;;;3.03;;
24897;SDS011;12957;49.434;8.684;2024-01-06T07:21:22;8.80;;;3.37;;
24897;SDS011;12957;49.434;8.684;2024-01-06T07:23:48;5.73;;;3.37;;
24897;SDS011;12957;49.434;8.684;2024-01-06T07:26:14;8.47;;;3.10;;
24897;SDS011;12957;49.434;8.684;2024-01-06T07:28:39;7.37;;;2.90;;
24897;SDS011;12957;49.434;8.684;2024-01-06T07:31:04;6.77;;;3.20;;
24897;SDS011;12957;49.434;8.684;2024-01-06T07:33:30;12.00;;;3.40;;
24897;SDS011;12957;49.434;8.684;2024-01-06T07:35:56;6.80;;;3.47;;
24897;SDS011;12957;49.434;8.684;2024-01-06T07:38:21;4.67;;;3.33;;
24897;SDS011;12957;49.434;8.684;2024-01-06T07:40:47;4.90;;;3.00;;
24897;SDS011;12957;49.434;8.684;2024-01-06T07:43:12;7.03;;;4.27;;
24897;SDS011;12957;49.434;8.684;2024-01-06T07:45:40;5.57;;;2.93;;
24897;SDS011;12957;49.434;8.684;2024-01-06T07:48:06;8.27;;;3.50;;
24897;SDS011;12957;49.434;8.684;2024-01-06T07:50:32;5.40;;;3.10;;
24897;SDS011;12957;49.434;8.684;2024-01-06T07:52:57;6.27;;;3.00;;
24897;SDS011;12957;49.434;8.684;2024-01-06T07:55:23;5.17;;;2.83;;
24897;SDS011;12957;49.434;8.684;2024-01-06T07:57:48;4.77;;;3.20;;
24897;SDS011;12957;49.434;8.684;2024-01-06T08:00:14;7.20;;;2.90;;
24897;SDS011;12957;49.434;8.684;2024-01-06T08:02:40;5.87;;;2.90;;
24897;SDS011;12957;49.434;8.684;2024-01-06T08:05:08;5.50;;;3.20;;
24897;SDS011;12957;49.434;8.684;2024-01-06T08:07:33;7.50;;;3.10;;
24897;SDS011;12957;49.434;8.684;2024-01-06T08:09:59;6.55;;;2.97;;
24897;SDS011;12957;49.434;8.684;2024-01-06T08:12:24;7.47;;;3.03;;
24897;SDS011;12957;49.434;8.684;2024-01-06T08:14:50;5.63;;;3.07;;
24897;SDS011;12957;49.434;8.684;2024-01-06T08:17:15;7.50;;;3.20;;
24897;SDS011;12957;49.434;8.684;2024-01-06T08:19:41;9.03;;;3.50;;
24897;SDS011;12957;49.434;8.684;2024-01-06T08:22:07;5.83;;;3.07;;
24897;SDS011;12957;49.434;8.684;2024-01-06T08:24:32;6.17;;;2.90;;
24897;SDS011;12957;49.434;8.684;2024-01-06T08:26:58;5.75;;;2.80;;
24897;SDS011;12957;49.434;8.684;2024-01-06T08:29:24;5.80;;;3.63;;
24897;SDS011;12957;49.434;8.684;2024-01-06T08:31:49;7.17;;;3.43;;
24897;SDS011;12957;49.434;8.684;2024-01-06T08:34:20;8.87;;;3.87;;
24897;SDS011;12957;49.434;8.684;2024-01-06T08:36:45;10.50;;;3.70;;
24897;SDS011;12957;49.434;8.684;2024-01-06T08:39:12;5.17;;;3.23;;
24897;SDS011;12957;49.434;8.684;2024-01-06T08:41:37;6.93;;;2.97;;
24897;SDS011;12957;49.434;8.684;2024-01-06T08:44:03;8.63;;;3.30;;
24897;SDS011;12957;49.434;8.684;2024-01-06T08:46:29;6.27;;;3.33;;
24897;SDS011;12957;49.434;8.684;2024-01-06T08:48:55;6.00;;;3.87;;
24897;SDS011;12957;49.434;8.684;2024-01-06T08:51:21;4.27;;;3.40;;
24897;SDS011;12957;49.434;8.684;2024-01-06T08:53:46;8.00;;;3.93;;
24897;SDS011;12957;49.434;8.684;2024-01-06T08:56:12;8.47;;;4.00;;
24897;SDS011;12957;49.434;8.684;2024-01-06T08:58:37;5.93;;;3.57;;
24897;SDS011;12957;49.434;8.684;2024-01-06T09:01:03;6.50;;;3.90;;
24897;SDS011;12957;49.434;8.684;2024-01-06T09:03:28;9.57;;;4.20;;
24897;SDS011;12957;49.434;8.684;2024-01-06T09:05:57;6.77;;;4.20;;
24897;SDS011;12957;49.434;8.684;2024-01-06T09:08:23;9.00;;;4.73;;
24897;SDS011;12957;49.434;8.684;2024-01-06T09:10:49;9.20;;;4.43;;
24897;SDS011;12957;49.434;8.684;2024-01-06T09:13:16;9.87;;;4.40;;
24897;SDS011;12957;49.434;8.684;2024-01-06T09:15:42;10.60;;;5.10;;
24897;SDS011;12957;49.434;8.684;2024-01-06T09:18:08;8.03;;;4.50;;
24897;SDS011;12957;49.434;8.684;2024-01-06T09:20:34;10.80;;;4.47;;
24897;SDS011;12957;49.434;8.684;2024-01-06T09:22:59;7.77;;;4.10;;
24897;SDS011;12957;49.434;8.684;2024-01-06T09:25:25;6.27;;;3.73;;
24897;SDS011;12957;49.434;8.684;2024-01-06T09:27:51;11.27;;;3.97;;
24897;SDS011;12957;49.434;8.684;2024-01-06T09:30:18;8.67;;;4.30;;
24897;SDS011;12957;49.434;8.684;2024-01-06T09:32:43;8.50;;;5.03;;
24897;SDS011;12957;49.434;8.684;2024-01-06T09:35:09;9.83;;;4.70;;
24897;SDS011;12957;49.434;8.684;2024-01-06T09:37:34;10.83;;;4.73;;
24897;SDS011;12957;49.434;8.684;2024-01-06T09:40:00;8.40;;;4.60;;
24897;SDS011;12957;49.434;8.684;2024-01-06T09:42:25;8.88;;;4.40;;
24897;SDS011;12957;49.434;8.684;2024-01-06T09:44:51;5.53;;;3.88;;
24897;SDS011;12957;49.434;8.684;2024-01-06T09:47:17;8.13;;;4.50;;
24897;SDS011;12957;49.434;8.684;2024-01-06T09:49:45;8.50;;;4.00;;
24897;SDS011;12957;49.434;8.684;2024-01-06T09:52:14;9.37;;;4.60;;
24897;SDS011;12957;49.434;8.684;2024-01-06T09:54:52;9.63;;;4.18;;
24897;SDS011;12957;49.434;8.684;2024-01-06T09:57:18;7.10;;;4.00;;
24897;SDS011;12957;49.434;8.684;2024-01-06T09:59:44;5.60;;;4.00;;
24897;SDS011;12957;49.434;8.684;2024-01-06T10:02:12;9.80;;;4.43;;
24897;SDS011;12957;49.434;8.684;2024-01-06T10:04:39;8.47;;;4.13;;
24897;SDS011;12957;49.434;8.684;2024-01-06T10:07:05;7.80;;;4.20;;
24897;SDS011;12957;49.434;8.684;2024-01-06T10:09:31;9.20;;;4.33;;
24897;SDS011;12957;49.434;8.684;2024-01-06T10:11:57;7.90;;;4.07;;
24897;SDS011;12957;49.434;8.684;2024-01-06T10:14:23;6.87;;;3.90;;
24897;SDS011;12957;49.434;8.684;2024-01-06T10:16:49;5.45;;;3.38;;
24897;SDS011;12957;49.434;8.684;2024-01-06T10:19:16;9.77;;;3.87;;
24897;SDS011;12957;49.434;8.684;2024-01-06T10:21:41;9.27;;;4.53;;
24897;SDS011;12957;49.434;8.684;2024-01-06T10:24:07;5.63;;;3.87;;
24897;SDS011;12957;49.434;8.684;2024-01-06T10:26:33;8.87;;;3.90;;
24897;SDS011;12957;49.434;8.684;2024-01-06T10:28:59;7.37;;;4.10;;
24897;SDS011;12957;49.434;8.684;2024-01-06T10:31:25;5.80;;;3.72;;
24897;SDS011;12957;49.434;8.684;2024-01-06T10:33:50;7.97;;;4.22;;
24897;SDS011;12957;49.434;8.684;2024-01-06T10:36:16;9.25;;;4.43;;
24897;SDS011;12957;49.434;8.684;2024-01-06T10:38:42;6.15;;;4.00;;
24897;SDS011;12957;49.434;8.684;2024-01-06T10:41:07;9.33;;;4.60;;
24897;SDS011;12957;49.434;8.684;2024-01-06T10:43:35;6.30;;;4.20;;
24897;SDS011;12957;49.434;8.684;2024-01-06T10:46:06;7.22;;;4.10;;
24897;SDS011;12957;49.434;8.684;2024-01-06T10:48:35;9.23;;;4.87;;
24897;SDS011;12957;49.434;8.684;2024-01-06T10:51:03;9.85;;;4.88;;
24897;SDS011;12957;49.434;8.684;2024-01-06T10:53:32;10.20;;;5.03;;
24897;SDS011;12957;49.434;8.684;2024-01-06T10:55:58;9.55;;;5.40;;
24897;SDS011;12957;49.434;8.684;2024-01-06T10:58:25;8.57;;;5.25;;
24897;SDS011;12957;49.434;8.684;2024-01-06T11:00:50;9.73;;;4.60;;
24897;SDS011;12957;49.434;8.684;2024-01-06T11:03:16;6.20;;;5.20;;
24897;SDS011;12957;49.434;8.684;2024-01-06T11:05:42;8.30;;;5.03;;
24897;SDS011;12957;49.434;8.684;2024-01-06T11:08:08;27.02;;;10.80;;
24897;SDS011;12957;49.434;8.684;2024-01-06T11:10:36;11.10;;;5.83;;
24897;SDS011;12957;49.434;8.684;2024-01-06T11:13:12;8.00;;;5.30;;
24897;SDS011;12957;49.434;8.684;2024-01-06T11:15:39;8.97;;;5.37;;
24897;SDS011;12957;49.434;8.684;2024-01-06T11:18:07;9.93;;;5.40;;
24897;SDS011;12957;49.434;8.684;2024-01-06T11:20:33;14.33;;;5.77;;
24897;SDS011;12957;49.434;8.684;2024-01-06T11:23:17;10.25;;;5.32;;
24897;SDS011;12957;49.434;8.684;2024-01-06T11:25:46;9.83;;;5.67;;
24897;SDS011;12957;49.434;8.684;2024-01-06T11:28:12;11.38;;;5.57;;
24897;SDS011;12957;49.434;8.684;2024-01-06T11:30:39;10.53;;;5.37;;
24897;SDS011;12957;49.434;8.684;2024-01-06T11:33:05;9.23;;;5.40;;
24897;SDS011;12957;49.434;8.684;2024-01-06T11:35:30;13.87;;;5.63;;
24897;SDS011;12957;49.434;8.684;2024-01-06T11:37:57;9.17;;;5.53;;
24897;SDS011;12957;49.434;8.684;2024-01-06T11:40:33;9.77;;;6.05;;
24897;SDS011;12957;49.434;8.684;2024-01-06T11:43:10;12.80;;;5.35;;
24897;SDS011;12957;49.434;8.684;2024-01-06T11:45:41;6.67;;;5.30;;
24897;SDS011;12957;49.434;8.684;2024-01-06T11:48:08;8.40;;;5.20;;
24897;SDS011;12957;49.434;8.684;2024-01-06T11:50:35;7.30;;;5.17;;
24897;SDS011;12957;49.434;8.684;2024-01-06T11:53:02;9.67;;;6.10;;
24897;SDS011;12957;49.434;8.684;2024-01-06T11:55:28;11.50;;;5.70;;
24897;SDS011;12957;49.434;8.684;2024-01-06T11:57:57;13.73;;;6.40;;
24897;SDS011;12957;49.434;8.684;2024-01-06T12:00:28;8.20;;;5.17;;
24897;SDS011;12957;49.434;8.684;2024-01-06T12:02:57;12.30;;;6.27;;
24897;SDS011;12957;49.434;8.684;2024-01-06T12:05:24;10.38;;;5.80;;
24897;SDS011;12957;49.434;8.684;2024-01-06T12:07:55;8.63;;;5.73;;
24897;SDS011;12957;49.434;8.684;2024-01-06T12:10:22;10.32;;;5.90;;
24897;SDS011;12957;49.434;8.684;2024-01-06T12:12:55;8.70;;;5.77;;
24897;SDS011;12957;49.434;8.684;2024-01-06T12:15:32;8.87;;;5.37;;
24897;SDS011;12957;49.434;8.684;2024-01-06T12:17:58;11.23;;;5.45;;
24897;SDS011;12957;49.434;8.684;2024-01-06T12:20:28;10.63;;;5.93;;
24897;SDS011;12957;49.434;8.684;2024-01-06T12:22:54;12.73;;;6.30;;
24897;SDS011;12957;49.434;8.684;2024-01-06T12:25:20;9.73;;;5.63;;
24897;SDS011;12957;49.434;8.684;2024-01-06T12:27:47;9.53;;;5.50;;
24897;SDS011;12957;49.434;8.684;2024-01-06T12:30:17;8.83;;;5.70;;
24897;SDS011;12957;49.434;8.684;2024-01-06T12:32:47;8.13;;;5.60;;
24897;SDS011;12957;49.434;8.684;2024-01-06T12:35:14;9.33;;;5.33;;
24897;SDS011;12957;49.434;8.684;2024-01-06T12:37:41;8.97;;;5.67;;
24897;SDS011;12957;49.434;8.684;2024-01-06T12:40:08;8.90;;;5.53;;
24897;SDS011;12957;49.434;8.684;2024-01-06T12:42:36;9.75;;;5.50;;
24897;SDS011;12957;49.434;8.684;2024-01-06T12:45:03;6.40;;;5.30;;
24897;SDS011;12957;49.434;8.684;2024-01-06T12:47:28;10.68;;;6.20;;
24897;SDS011;12957;49.434;8.684;2024-01-06T12:49:54;9.57;;;5.63;;
24897;SDS011;12957;49.434;8.684;2024-01-06T12:52:20;9.52;;;5.82;;
24897;SDS011;12957;49.434;8.684;2024-01-06T12:54:45;9.77;;;5.60;;
24897;SDS011;12957;49.434;8.684;2024-01-06T12:57:11;8.40;;;5.70;;
24897;SDS011;12957;49.434;8.684;2024-01-06T12:59:36;9.18;;;5.57;;
24897;SDS011;12957;49.434;8.684;2024-01-06T13:02:02;11.63;;;6.40;;
24897;SDS011;12957;49.434;8.684;2024-01-06T13:04:27;12.98;;;6.22;;
24897;SDS011;12957;49.434;8.684;2024-01-06T13:06:53;8.63;;;6.30;;
24897;SDS011;12957;49.434;8.684;2024-01-06T13:09:18;9.97;;;5.83;;
24897;SDS011;12957;49.434;8.684;2024-01-06T13:11:44;7.73;;;5.80;;
24897;SDS011;12957;49.434;8.684;2024-01-06T13:14:12;11.27;;;6.03;;
24897;SDS011;12957;49.434;8.684;2024-01-06T13:16:38;9.23;;;6.05;;
24897;SDS011;12957;49.434;8.684;2024-01-06T13:19:03;10.43;;;6.53;;
24897;SDS011;12957;49.434;8.684;2024-01-06T13:21:29;11.82;;;6.82;;
24897;SDS011;12957;49.434;8.684;2024-01-06T13:23:55;10.05;;;6.82;;
24897;SDS011;12957;49.434;8.684;2024-01-06T13:26:25;9.45;;;6.47;;
24897;SDS011;12957;49.434;8.684;2024-01-06T13:28:52;9.88;;;6.80;;
24897;SDS011;12957;49.434;8.684;2024-01-06T13:31:18;10.40;;;6.60;;
24897;SDS011;12957;49.434;8.684;2024-01-06T13:33:44;9.90;;;6.82;;
24897;SDS011;12957;49.434;8.684;2024-01-06T13:36:09;11.40;;;7.03;;
24897;SDS011;12957;49.434;8.684;2024-01-06T13:38:35;11.13;;;7.13;;
24897;SDS011;12957;49.434;8.684;2024-01-06T13:41:00;12.60;;;7.30;;
24897;SDS011;12957;49.434;8.684;2024-01-06T13:43:26;16.13;;;7.03;;
24897;SDS011;12957;49.434;8.684;2024-01-06T13:45:51;12.63;;;7.47;;
24897;SDS011;12957;49.434;8.684;2024-01-06T13:48:17;8.88;;;6.75;;
24897;SDS011;12957;49.434;8.684;2024-01-06T13:50:43;11.57;;;7.37;;
24897;SDS011;12957;49.434;8.684;2024-01-06T13:53:10;11.23;;;6.70;;
24897;SDS011;12957;49.434;8.684;2024-01-06T13:55:35;13.43;;;7.33;;
24897;SDS011;12957;49.434;8.684;2024-01-06T13:58:01;12.93;;;7.25;;
24897;SDS011;12957;49.434;8.684;2024-01-06T14:00:27;10.52;;;6.97;;
24897;SDS011;12957;49.434;8.684;2024-01-06T14:02:52;10.90;;;6.55;;
24897;SDS011;12957;49.434;8.684;2024-01-06T14:05:19;8.40;;;6.32;;
24897;SDS011;12957;49.434;8.684;2024-01-06T14:07:45;8.93;;;6.22;;
24897;SDS011;12957;49.434;8.684;2024-01-06T14:10:13;9.60;;;7.03;;
24897;SDS011;12957;49.434;8.684;2024-01-06T14:12:40;12.60;;;6.93;;
24897;SDS011;12957;49.434;8.684;2024-01-06T14:15:06;10.73;;;7.30;;
24897;SDS011;12957;49.434;8.684;2024-01-06T14:17:32;11.27;;;7.20;;
24897;SDS011;12957;49.434;8.684;2024-01-06T14:19:57;12.20;;;7.32;;
24897;SDS011;12957;49.434;8.684;2024-01-06T14:22:23;11.20;;;7.30;;
24897;SDS011;12957;49.434;8.684;2024-01-06T14:24:49;10.98;;;7.40;;
24897;SDS011;12957;49.434;8.684;2024-01-06T14:27:15;12.57;;;6.72;;
24897;SDS011;12957;49.434;8.684;2024-01-06T14:29:41;9.57;;;6.47;;
24897;SDS011;12957;49.434;8.684;2024-01-06T14:32:06;10.45;;;6.82;;
24897;SDS011;12957;49.434;8.684;2024-01-06T14:34:32;10.70;;;7.18;;
24897;SDS011;12957;49.434;8.684;2024-01-06T14:36:57;15.82;;;6.97;;
24897;SDS011;12957;49.434;8.684;2024-01-06T14:39:23;8.77;;;6.93;;